sensor_id;sensor_type;location;lat;lon;timestamp;pressure;altitude;pressure_sealevel;temperature;humidity
4012;BME280;2020;48.682;9.024;2023-02-15T00:01:27;97665.38;;;0.64;77.11
4012;BME280;2020;48.682;9.024;2023-02-15T00:03:53;97662.09;;;0.61;76.87
4012;BME280;2020;48.682;9.024;2023-02-15T00:06:18;97664.66;;;0.61;76.62
4012;BME280;2020;48.682;9.024;2023-02-15T00:08:44;97658.59;;;0.63;76.71
4012;BME280;2020;48.682;9.024;2023-02-15T00:11:12;97660.66;;;0.33;78.33
4012;BME280;2020;48.682;9.024;2023-02-15T00:13:38;97647.22;;;0.27;79.37
4012;BME280;2020;48.682;9.024;2023-02-15T00:16:11;97647.28;;;0.26;79.46
4012;BME280;2020;48.682;9.024;2023-02-15T00:18:37;97647.09;;;0.31;78.34
4012;BME280;2020;48.682;9.024;2023-02-15T00:21:08;97643.25;;;0.41;76.89
4012;BME280;2020;48.682;9.024;2023-02-15T00:23:35;97645.69;;;0.44;76.76
4012;BME280;2020;48.682;9.024;2023-02-15T00:26:09;97643.13;;;0.44;77.58
4012;BME280;2020;48.682;9.024;2023-02-15T00:28:35;97640.69;;;0.41;78.14
4012;BME280;2020;48.682;9.024;2023-02-15T00:31:08;97639.94;;;0.39;78.31
4012;BME280;2020;48.682;9.024;2023-02-15T00:33:34;97637.44;;;0.37;78.65
4012;BME280;2020;48.682;9.024;2023-02-15T00:36:00;97632.69;;;0.28;77.92
4012;BME280;2020;48.682;9.024;2023-02-15T00:38:27;97627.50;;;0.29;77.94
4012;BME280;2020;48.682;9.024;2023-02-15T00:41:01;97635.06;;;0.33;77.61
4012;BME280;2020;48.682;9.024;2023-02-15T00:43:28;97635.44;;;0.23;77.56
4012;BME280;2020;48.682;9.024;2023-02-15T00:45:54;97635.81;;;0.14;77.96
4012;BME280;2020;48.682;9.024;2023-02-15T00:48:20;97640.81;;;0.17;77.65
4012;BME280;2020;48.682;9.024;2023-02-15T00:50:49;97640.03;;;0.15;78.02
4012;BME280;2020;48.682;9.024;2023-02-15T00:53:15;97634.25;;;0.10;78.62
4012;BME280;2020;48.682;9.024;2023-02-15T00:55:40;97634.03;;;-0.06;79.57
4012;BME280;2020;48.682;9.024;2023-02-15T00:58:07;97629.88;;;-0.09;80.10
4012;BME280;2020;48.682;9.024;2023-02-15T01:00:32;97627.03;;;-0.23;79.13
4012;BME280;2020;48.682;9.024;2023-02-15T01:02:58;97623.22;;;-0.13;79.81
4012;BME280;2020;48.682;9.024;2023-02-15T01:05:23;97616.19;;;-0.08;79.92
4012;BME280;2020;48.682;9.024;2023-02-15T01:07:48;97616.19;;;-0.08;79.68
4012;BME280;2020;48.682;9.024;2023-02-15T01:10:14;97617.47;;;0.03;78.54
4012;BME280;2020;48.682;9.024;2023-02-15T01:12:39;97619.38;;;-0.03;78.13
4012;BME280;2020;48.682;9.024;2023-02-15T01:15:04;97619.38;;;-0.03;77.63
4012;BME280;2020;48.682;9.024;2023-02-15T01:17:31;97619.38;;;-0.03;77.33
4012;BME280;2020;48.682;9.024;2023-02-15T01:19:56;97623.38;;;0.05;76.85
4012;BME280;2020;48.682;9.024;2023-02-15T01:22:21;97621.78;;;0.02;76.61
4012;BME280;2020;48.682;9.024;2023-02-15T01:24:48;97632.13;;;-0.01;77.05
4012;BME280;2020;48.682;9.024;2023-02-15T01:27:14;97623.66;;;-0.03;77.75
4012;BME280;2020;48.682;9.024;2023-02-15T01:29:39;97628.97;;;-0.08;78.18
4012;BME280;2020;48.682;9.024;2023-02-15T01:32:04;97625.94;;;-0.18;79.56
4012;BME280;2020;48.682;9.024;2023-02-15T01:34:30;97625.13;;;-0.18;78.88
4012;BME280;2020;48.682;9.024;2023-02-15T01:36:55;97626.78;;;-0.17;79.06
4012;BME280;2020;48.682;9.024;2023-02-15T01:39:20;97628.56;;;-0.19;78.81
4012;BME280;2020;48.682;9.024;2023-02-15T01:41:45;97631.06;;;-0.18;78.12
4012;BME280;2020;48.682;9.024;2023-02-15T01:47:33;97621.66;;;-0.17;78.30
4012;BME280;2020;48.682;9.024;2023-02-15T01:50:29;97618.75;;;-0.52;80.13
4012;BME280;2020;48.682;9.024;2023-02-15T01:53:05;97610.63;;;-0.64;82.37
4012;BME280;2020;48.682;9.024;2023-02-15T01:55:36;97608.84;;;-0.62;82.01
4012;BME280;2020;48.682;9.024;2023-02-15T01:58:03;97611.53;;;-0.65;80.83
4012;BME280;2020;48.682;9.024;2023-02-15T02:00:28;97619.63;;;-0.53;79.82
4012;BME280;2020;48.682;9.024;2023-02-15T02:02:55;97617.00;;;-0.52;79.25
4012;BME280;2020;48.682;9.024;2023-02-15T02:05:22;97614.63;;;-0.56;79.31
4012;BME280;2020;48.682;9.024;2023-02-15T02:07:48;97605.44;;;-0.62;81.33
4012;BME280;2020;48.682;9.024;2023-02-15T02:10:19;97608.16;;;-0.67;82.59
4012;BME280;2020;48.682;9.024;2023-02-15T02:12:47;97604.84;;;-0.69;82.64
4012;BME280;2020;48.682;9.024;2023-02-15T02:15:14;97608.91;;;-0.63;80.64
4012;BME280;2020;48.682;9.024;2023-02-15T02:18:11;97591.84;;;-0.63;79.31
4012;BME280;2020;48.682;9.024;2023-02-15T02:23:19;97596.06;;;-0.62;79.25
4012;BME280;2020;48.682;9.024;2023-02-15T02:28:51;97591.97;;;-0.90;80.14
4012;BME280;2020;48.682;9.024;2023-02-15T02:31:43;97587.47;;;-0.83;79.44
4012;BME280;2020;48.682;9.024;2023-02-15T02:34:33;97591.28;;;-0.71;79.11
4012;BME280;2020;48.682;9.024;2023-02-15T02:37:24;97582.50;;;-0.64;78.53
4012;BME280;2020;48.682;9.024;2023-02-15T02:42:41;97590.47;;;-0.71;78.14
4012;BME280;2020;48.682;9.024;2023-02-15T02:45:13;97584.59;;;-0.75;77.97
4012;BME280;2020;48.682;9.024;2023-02-15T02:47:49;97585.38;;;-0.73;78.25
4012;BME280;2020;48.682;9.024;2023-02-15T02:50:21;97581.63;;;-0.86;78.99
4012;BME280;2020;48.682;9.024;2023-02-15T02:52:49;97577.59;;;-0.92;79.84
4012;BME280;2020;48.682;9.024;2023-02-15T02:55:34;97577.16;;;-0.81;79.85
4012;BME280;2020;48.682;9.024;2023-02-15T03:00:59;97581.84;;;-0.93;79.00
4012;BME280;2020;48.682;9.024;2023-02-15T03:03:34;97583.63;;;-0.95;79.88
4012;BME280;2020;48.682;9.024;2023-02-15T03:06:06;97587.06;;;-0.96;80.59
4012;BME280;2020;48.682;9.024;2023-02-15T03:08:37;97593.97;;;-0.98;79.95
4012;BME280;2020;48.682;9.024;2023-02-15T03:11:03;97590.75;;;-1.03;80.07
4012;BME280;2020;48.682;9.024;2023-02-15T03:13:29;97584.41;;;-1.16;82.73
4012;BME280;2020;48.682;9.024;2023-02-15T03:15:55;97573.97;;;-1.10;82.78
4012;BME280;2020;48.682;9.024;2023-02-15T03:18:48;97573.31;;;-1.15;81.72
4012;BME280;2020;48.682;9.024;2023-02-15T03:21:23;97580.50;;;-1.27;81.67
4012;BME280;2020;48.682;9.024;2023-02-15T03:23:59;97579.94;;;-1.35;81.43
4012;BME280;2020;48.682;9.024;2023-02-15T03:26:26;97576.19;;;-1.25;80.52
4012;BME280;2020;48.682;9.024;2023-02-15T03:28:55;97571.84;;;-1.47;82.02
4012;BME280;2020;48.682;9.024;2023-02-15T03:31:23;97576.41;;;-1.31;80.99
4012;BME280;2020;48.682;9.024;2023-02-15T03:33:55;97575.94;;;-1.42;81.44
4012;BME280;2020;48.682;9.024;2023-02-15T03:36:32;97576.72;;;-1.40;81.99
4012;BME280;2020;48.682;9.024;2023-02-15T03:39:10;97579.28;;;-1.40;81.19
4012;BME280;2020;48.682;9.024;2023-02-15T03:41:42;97574.63;;;-1.54;82.92
4012;BME280;2020;48.682;9.024;2023-02-15T03:44:27;97575.59;;;-1.57;81.86
4012;BME280;2020;48.682;9.024;2023-02-15T03:46:58;97583.72;;;-1.45;81.34
4012;BME280;2020;48.682;9.024;2023-02-15T03:52:09;97580.69;;;-1.57;82.76
4012;BME280;2020;48.682;9.024;2023-02-15T03:54:36;97589.16;;;-1.55;81.75
4012;BME280;2020;48.682;9.024;2023-02-15T03:57:19;97578.72;;;-1.49;80.75
4012;BME280;2020;48.682;9.024;2023-02-15T04:00:14;97590.59;;;-1.48;80.51
4012;BME280;2020;48.682;9.024;2023-02-15T04:03:49;97585.91;;;-1.60;81.36
4012;BME280;2020;48.682;9.024;2023-02-15T04:05:53;97579.75;;;-1.80;80.71
4012;BME280;2020;48.682;9.024;2023-02-15T04:08:18;97571.13;;;-1.75;82.50
4012;BME280;2020;48.682;9.024;2023-02-15T04:10:43;97572.56;;;-1.94;82.69
4012;BME280;2020;48.682;9.024;2023-02-15T04:13:19;97568.41;;;-1.96;82.69
4012;BME280;2020;48.682;9.024;2023-02-15T04:15:45;97569.75;;;-1.86;82.18
4012;BME280;2020;48.682;9.024;2023-02-15T04:18:39;97571.00;;;-1.72;80.78
4012;BME280;2020;48.682;9.024;2023-02-15T04:21:25;97577.00;;;-1.73;81.32
4012;BME280;2020;48.682;9.024;2023-02-15T04:24:09;97585.38;;;-1.70;81.34
4012;BME280;2020;48.682;9.024;2023-02-15T04:26:54;97582.69;;;-1.65;80.79
4012;BME280;2020;48.682;9.024;2023-02-15T04:29:20;97576.84;;;-1.94;81.37
4012;BME280;2020;48.682;9.024;2023-02-15T04:31:46;97574.75;;;-1.83;80.44
4012;BME280;2020;48.682;9.024;2023-02-15T04:34:12;97572.41;;;-1.89;81.21
4012;BME280;2020;48.682;9.024;2023-02-15T04:36:38;97568.56;;;-2.02;82.12
4012;BME280;2020;48.682;9.024;2023-02-15T04:39:03;97571.22;;;-2.06;81.91
4012;BME280;2020;48.682;9.024;2023-02-15T04:41:29;97557.53;;;-2.03;82.35
4012;BME280;2020;48.682;9.024;2023-02-15T04:43:54;97567.00;;;-2.07;83.05
4012;BME280;2020;48.682;9.024;2023-02-15T04:46:19;97562.50;;;-1.98;81.87
4012;BME280;2020;48.682;9.024;2023-02-15T04:48:45;97555.44;;;-2.17;82.43
4012;BME280;2020;48.682;9.024;2023-02-15T04:51:10;97545.03;;;-2.11;81.91
4012;BME280;2020;48.682;9.024;2023-02-15T04:53:36;97541.22;;;-1.97;81.51
4012;BME280;2020;48.682;9.024;2023-02-15T04:56:01;97547.28;;;-2.01;81.54
4012;BME280;2020;48.682;9.024;2023-02-15T04:58:27;97551.50;;;-2.00;82.67
4012;BME280;2020;48.682;9.024;2023-02-15T05:00:55;97553.16;;;-1.99;82.44
4012;BME280;2020;48.682;9.024;2023-02-15T05:03:20;97556.59;;;-2.00;81.86
4012;BME280;2020;48.682;9.024;2023-02-15T05:05:46;97556.69;;;-2.03;80.58
4012;BME280;2020;48.682;9.024;2023-02-15T05:08:11;97556.59;;;-2.27;81.97
4012;BME280;2020;48.682;9.024;2023-02-15T05:10:36;97545.72;;;-2.32;83.24
4012;BME280;2020;48.682;9.024;2023-02-15T05:13:02;97553.34;;;-2.31;82.35
4012;BME280;2020;48.682;9.024;2023-02-15T05:15:27;97549.16;;;-2.33;83.45
4012;BME280;2020;48.682;9.024;2023-02-15T05:17:52;97547.28;;;-2.28;83.08
4012;BME280;2020;48.682;9.024;2023-02-15T05:20:17;97542.47;;;-2.38;83.94
4012;BME280;2020;48.682;9.024;2023-02-15T05:22:43;97543.47;;;-2.42;84.21
4012;BME280;2020;48.682;9.024;2023-02-15T05:25:09;97539.25;;;-2.43;83.37
4012;BME280;2020;48.682;9.024;2023-02-15T05:27:53;97543.13;;;-2.31;82.94
4012;BME280;2020;48.682;9.024;2023-02-15T05:30:37;97535.97;;;-2.19;82.30
4012;BME280;2020;48.682;9.024;2023-02-15T05:33:04;97539.50;;;-2.24;81.64
4012;BME280;2020;48.682;9.024;2023-02-15T05:35:30;97545.31;;;-2.20;81.48
4012;BME280;2020;48.682;9.024;2023-02-15T05:37:55;97538.44;;;-2.18;80.83
4012;BME280;2020;48.682;9.024;2023-02-15T05:40:20;97545.13;;;-2.14;80.50
4012;BME280;2020;48.682;9.024;2023-02-15T05:42:45;97541.88;;;-2.19;80.58
4012;BME280;2020;48.682;9.024;2023-02-15T05:45:11;97548.47;;;-2.12;80.15
4012;BME280;2020;48.682;9.024;2023-02-15T05:47:36;97553.66;;;-2.15;80.35
4012;BME280;2020;48.682;9.024;2023-02-15T05:50:01;97557.38;;;-2.25;80.34
4012;BME280;2020;48.682;9.024;2023-02-15T05:52:26;97566.97;;;-2.32;81.67
4012;BME280;2020;48.682;9.024;2023-02-15T05:54:52;97561.09;;;-2.34;81.94
4012;BME280;2020;48.682;9.024;2023-02-15T05:57:17;97562.06;;;-2.38;81.26
4012;BME280;2020;48.682;9.024;2023-02-15T05:59:42;97555.38;;;-2.42;81.64
4012;BME280;2020;48.682;9.024;2023-02-15T06:02:07;97561.59;;;-2.51;82.14
4012;BME280;2020;48.682;9.024;2023-02-15T06:04:33;97559.59;;;-2.70;83.34
4012;BME280;2020;48.682;9.024;2023-02-15T06:06:58;97560.13;;;-2.58;83.17
4012;BME280;2020;48.682;9.024;2023-02-15T06:09:23;97563.25;;;-2.50;81.91
4012;BME280;2020;48.682;9.024;2023-02-15T06:11:48;97566.59;;;-2.48;80.96
4012;BME280;2020;48.682;9.024;2023-02-15T06:14:14;97558.25;;;-2.53;80.75
4012;BME280;2020;48.682;9.024;2023-02-15T06:16:39;97565.69;;;-2.45;80.67
4012;BME280;2020;48.682;9.024;2023-02-15T06:19:04;97572.28;;;-2.40;80.74
4012;BME280;2020;48.682;9.024;2023-02-15T06:21:30;97565.41;;;-2.36;80.37
4012;BME280;2020;48.682;9.024;2023-02-15T06:23:56;97568.03;;;-2.39;80.20
4012;BME280;2020;48.682;9.024;2023-02-15T06:26:21;97578.47;;;-2.47;80.62
4012;BME280;2020;48.682;9.024;2023-02-15T06:28:47;97577.44;;;-2.70;80.86
4012;BME280;2020;48.682;9.024;2023-02-15T06:31:12;97583.38;;;-2.69;84.59
4012;BME280;2020;48.682;9.024;2023-02-15T06:33:37;97576.06;;;-2.80;84.21
4012;BME280;2020;48.682;9.024;2023-02-15T06:36:03;97576.75;;;-2.75;83.70
4012;BME280;2020;48.682;9.024;2023-02-15T06:38:29;97583.72;;;-2.82;84.08
4012;BME280;2020;48.682;9.024;2023-02-15T06:40:54;97580.78;;;-2.68;82.44
4012;BME280;2020;48.682;9.024;2023-02-15T06:43:19;97582.91;;;-2.82;82.47
4012;BME280;2020;48.682;9.024;2023-02-15T06:45:45;97580.47;;;-2.85;82.42
4012;BME280;2020;48.682;9.024;2023-02-15T06:48:10;97583.63;;;-2.77;81.93
4012;BME280;2020;48.682;9.024;2023-02-15T06:50:36;97586.00;;;-2.72;80.88
4012;BME280;2020;48.682;9.024;2023-02-15T06:53:01;97580.13;;;-2.74;80.51
4012;BME280;2020;48.682;9.024;2023-02-15T06:55:27;97585.88;;;-2.68;80.92
4012;BME280;2020;48.682;9.024;2023-02-15T06:57:52;97584.41;;;-2.75;81.83
4012;BME280;2020;48.682;9.024;2023-02-15T07:00:17;97584.41;;;-2.75;83.91
4012;BME280;2020;48.682;9.024;2023-02-15T07:02:43;97586.25;;;-2.80;84.31
4012;BME280;2020;48.682;9.024;2023-02-15T07:05:09;97584.50;;;-2.78;84.71
4012;BME280;2020;48.682;9.024;2023-02-15T07:07:34;97585.78;;;-2.65;84.45
4012;BME280;2020;48.682;9.024;2023-02-15T07:09:59;97593.84;;;-2.50;84.80
4012;BME280;2020;48.682;9.024;2023-02-15T07:12:25;97589.97;;;-2.07;84.04
4012;BME280;2020;48.682;9.024;2023-02-15T07:15:17;97589.19;;;-1.56;82.33
4012;BME280;2020;48.682;9.024;2023-02-15T07:17:45;97587.25;;;-1.24;81.02
4012;BME280;2020;48.682;9.024;2023-02-15T07:20:17;97591.41;;;-0.98;80.26
4012;BME280;2020;48.682;9.024;2023-02-15T07:22:43;97580.84;;;-0.65;79.45
4012;BME280;2020;48.682;9.024;2023-02-15T07:25:10;97576.56;;;-0.42;78.35
4012;BME280;2020;48.682;9.024;2023-02-15T07:27:35;97579.53;;;-0.31;77.83
4012;BME280;2020;48.682;9.024;2023-02-15T07:30:01;97583.06;;;-0.12;80.64
4012;BME280;2020;48.682;9.024;2023-02-15T07:32:30;97578.41;;;0.20;77.37
4012;BME280;2020;48.682;9.024;2023-02-15T07:34:56;97576.16;;;0.33;78.16
4012;BME280;2020;48.682;9.024;2023-02-15T07:37:22;97575.88;;;0.60;76.83
4012;BME280;2020;48.682;9.024;2023-02-15T07:39:47;97578.97;;;0.87;76.68
4012;BME280;2020;48.682;9.024;2023-02-15T07:42:13;97585.94;;;1.04;76.50
4012;BME280;2020;48.682;9.024;2023-02-15T07:44:38;97571.09;;;1.30;75.39
4012;BME280;2020;48.682;9.024;2023-02-15T07:47:03;97560.75;;;1.51;75.32
4012;BME280;2020;48.682;9.024;2023-02-15T07:49:29;97562.28;;;1.72;72.07
4012;BME280;2020;48.682;9.024;2023-02-15T07:51:54;97561.41;;;1.91;71.05
4012;BME280;2020;48.682;9.024;2023-02-15T07:54:19;97559.53;;;2.12;69.97
4012;BME280;2020;48.682;9.024;2023-02-15T07:56:45;97564.59;;;2.31;69.95
4012;BME280;2020;48.682;9.024;2023-02-15T07:59:10;97578.19;;;2.33;71.68
4012;BME280;2020;48.682;9.024;2023-02-15T08:01:37;97571.56;;;2.29;71.94
4012;BME280;2020;48.682;9.024;2023-02-15T08:04:05;97576.22;;;2.39;71.63
4012;BME280;2020;48.682;9.024;2023-02-15T08:06:35;97577.59;;;2.46;71.56
4012;BME280;2020;48.682;9.024;2023-02-15T08:09:02;97579.09;;;2.32;71.72
4012;BME280;2020;48.682;9.024;2023-02-15T08:11:30;97579.16;;;2.31;72.39
4012;BME280;2020;48.682;9.024;2023-02-15T08:14:08;97577.13;;;2.38;73.27
4012;BME280;2020;48.682;9.024;2023-02-15T08:16:35;97576.66;;;2.65;73.93
4012;BME280;2020;48.682;9.024;2023-02-15T08:19:06;97574.19;;;2.79;72.78
4012;BME280;2020;48.682;9.024;2023-02-15T08:21:33;97573.88;;;2.85;71.94
4012;BME280;2020;48.682;9.024;2023-02-15T08:23:58;97573.88;;;2.85;71.41
4012;BME280;2020;48.682;9.024;2023-02-15T08:26:25;97568.56;;;2.88;70.42
4012;BME280;2020;48.682;9.024;2023-02-15T08:28:51;97572.09;;;3.19;71.46
4012;BME280;2020;48.682;9.024;2023-02-15T08:31:17;97576.09;;;3.41;71.01
4012;BME280;2020;48.682;9.024;2023-02-15T08:33:44;97567.97;;;3.33;69.68
4012;BME280;2020;48.682;9.024;2023-02-15T08:36:12;97567.78;;;3.52;69.78
4012;BME280;2020;48.682;9.024;2023-02-15T08:38:38;97570.34;;;3.68;68.92
4012;BME280;2020;48.682;9.024;2023-02-15T08:41:11;97567.91;;;3.81;68.28
4012;BME280;2020;48.682;9.024;2023-02-15T08:43:37;97566.41;;;3.93;67.94
4012;BME280;2020;48.682;9.024;2023-02-15T08:46:03;97572.34;;;4.09;66.30
4012;BME280;2020;48.682;9.024;2023-02-15T08:48:28;97566.75;;;4.17;65.83
4012;BME280;2020;48.682;9.024;2023-02-15T08:50:54;97562.44;;;4.32;65.45
4012;BME280;2020;48.682;9.024;2023-02-15T08:53:19;97564.53;;;4.71;64.95
4012;BME280;2020;48.682;9.024;2023-02-15T08:55:47;97564.91;;;4.79;63.93
4012;BME280;2020;48.682;9.024;2023-02-15T08:58:12;97563.25;;;4.78;62.71
4012;BME280;2020;48.682;9.024;2023-02-15T09:00:37;97561.22;;;4.83;62.55
4012;BME280;2020;48.682;9.024;2023-02-15T09:03:03;97562.88;;;5.13;63.28
4012;BME280;2020;48.682;9.024;2023-02-15T09:05:28;97549.47;;;5.63;63.14
4012;BME280;2020;48.682;9.024;2023-02-15T09:07:53;97555.44;;;6.05;61.05
4012;BME280;2020;48.682;9.024;2023-02-15T09:10:19;97557.31;;;6.29;59.63
4012;BME280;2020;48.682;9.024;2023-02-15T09:12:45;97553.41;;;6.36;59.64
4012;BME280;2020;48.682;9.024;2023-02-15T09:15:10;97550.72;;;6.51;58.54
4012;BME280;2020;48.682;9.024;2023-02-15T09:17:36;97551.13;;;6.70;56.84
4012;BME280;2020;48.682;9.024;2023-02-15T09:20:01;97547.81;;;6.68;55.38
4012;BME280;2020;48.682;9.024;2023-02-15T09:22:26;97546.34;;;6.90;55.57
4012;BME280;2020;48.682;9.024;2023-02-15T09:24:51;97543.19;;;7.11;55.68
4012;BME280;2020;48.682;9.024;2023-02-15T09:27:17;97541.31;;;7.13;54.88
4012;BME280;2020;48.682;9.024;2023-02-15T09:29:42;97535.69;;;7.32;54.49
4012;BME280;2020;48.682;9.024;2023-02-15T09:32:07;97537.53;;;7.67;53.54
4012;BME280;2020;48.682;9.024;2023-02-15T09:34:33;97529.66;;;7.69;53.03
4012;BME280;2020;48.682;9.024;2023-02-15T09:36:58;97525.59;;;7.53;53.21
4012;BME280;2020;48.682;9.024;2023-02-15T09:39:25;97528.72;;;7.70;53.08
4012;BME280;2020;48.682;9.024;2023-02-15T09:58:07;97519.28;;;8.52;51.36
4012;BME280;2020;48.682;9.024;2023-02-15T10:03:38;97517.44;;;8.99;50.33
4012;BME280;2020;48.682;9.024;2023-02-15T10:19:27;97511.81;;;10.46;46.69
4012;BME280;2020;48.682;9.024;2023-02-15T10:22:17;97511.25;;;10.42;46.67
4012;BME280;2020;48.682;9.024;2023-02-15T10:27:44;97515.00;;;10.49;47.14
4012;BME280;2020;48.682;9.024;2023-02-15T10:30:15;97505.09;;;10.74;46.28
4012;BME280;2020;48.682;9.024;2023-02-15T10:33:03;97503.41;;;10.94;45.76
4012;BME280;2020;48.682;9.024;2023-02-15T10:35:51;97495.28;;;10.88;44.82
4012;BME280;2020;48.682;9.024;2023-02-15T10:39:40;97492.88;;;11.16;45.34
4012;BME280;2020;48.682;9.024;2023-02-15T10:44:39;97481.28;;;11.39;44.43
4012;BME280;2020;48.682;9.024;2023-02-15T10:47:20;97483.22;;;11.57;44.34
4012;BME280;2020;48.682;9.024;2023-02-15T10:52:59;97481.28;;;11.59;43.97
4012;BME280;2020;48.682;9.024;2023-02-15T11:00:58;97480.06;;;11.83;43.73
4012;BME280;2020;48.682;9.024;2023-02-15T11:06:14;97475.94;;;12.10;41.72
4012;BME280;2020;48.682;9.024;2023-02-15T11:08:55;97469.88;;;12.19;42.63
4012;BME280;2020;48.682;9.024;2023-02-15T11:11:30;97474.16;;;12.58;42.31
4012;BME280;2020;48.682;9.024;2023-02-15T11:14:00;97467.47;;;12.83;41.95
4012;BME280;2020;48.682;9.024;2023-02-15T11:16:34;97464.16;;;12.81;40.49
4012;BME280;2020;48.682;9.024;2023-02-15T11:19:23;97456.53;;;12.98;41.88
4012;BME280;2020;48.682;9.024;2023-02-15T11:21:54;97456.94;;;12.93;40.84
4012;BME280;2020;48.682;9.024;2023-02-15T11:24:27;97453.63;;;13.01;40.71
4012;BME280;2020;48.682;9.024;2023-02-15T11:27:20;97453.91;;;12.98;40.49
4012;BME280;2020;48.682;9.024;2023-02-15T11:30:11;97443.34;;;13.18;40.13
4012;BME280;2020;48.682;9.024;2023-02-15T11:32:43;97443.78;;;13.31;39.51
4012;BME280;2020;48.682;9.024;2023-02-15T11:37:46;97445.22;;;13.80;38.74
4012;BME280;2020;48.682;9.024;2023-02-15T11:40:26;97435.66;;;14.15;38.41
4012;BME280;2020;48.682;9.024;2023-02-15T11:43:00;97437.69;;;14.03;37.82
4012;BME280;2020;48.682;9.024;2023-02-15T11:45:32;97428.88;;;14.04;37.67
4012;BME280;2020;48.682;9.024;2023-02-15T11:48:00;97429.72;;;14.04;37.35
4012;BME280;2020;48.682;9.024;2023-02-15T11:50:31;97432.63;;;14.01;37.87
4012;BME280;2020;48.682;9.024;2023-02-15T11:53:12;97430.56;;;14.40;37.47
4012;BME280;2020;48.682;9.024;2023-02-15T11:55:38;97423.66;;;14.65;37.32
4012;BME280;2020;48.682;9.024;2023-02-15T12:00:51;97426.56;;;15.05;36.71
4012;BME280;2020;48.682;9.024;2023-02-15T12:03:43;97430.44;;;14.84;35.87
4012;BME280;2020;48.682;9.024;2023-02-15T12:06:16;97418.34;;;15.00;36.04
4012;BME280;2020;48.682;9.024;2023-02-15T12:08:48;97417.56;;;15.08;35.40
4012;BME280;2020;48.682;9.024;2023-02-15T12:11:19;97415.06;;;14.98;36.41
4012;BME280;2020;48.682;9.024;2023-02-15T12:13:57;97418.38;;;15.16;35.49
4012;BME280;2020;48.682;9.024;2023-02-15T12:16:23;97413.84;;;15.27;35.44
4012;BME280;2020;48.682;9.024;2023-02-15T12:18:50;97406.00;;;15.35;34.74
4012;BME280;2020;48.682;9.024;2023-02-15T12:21:32;97412.56;;;15.56;34.41
4012;BME280;2020;48.682;9.024;2023-02-15T12:24:18;97412.56;;;15.72;33.69
4012;BME280;2020;48.682;9.024;2023-02-15T12:26:44;97403.69;;;15.82;32.76
4012;BME280;2020;48.682;9.024;2023-02-15T12:29:21;97409.41;;;15.60;31.50
4012;BME280;2020;48.682;9.024;2023-02-15T12:31:50;97403.34;;;15.76;32.15
4012;BME280;2020;48.682;9.024;2023-02-15T12:34:30;97413.88;;;15.93;32.50
4012;BME280;2020;48.682;9.024;2023-02-15T12:37:01;97401.22;;;16.05;32.28
4012;BME280;2020;48.682;9.024;2023-02-15T12:39:29;97404.63;;;16.14;32.55
4012;BME280;2020;48.682;9.024;2023-02-15T12:44:23;97398.72;;;16.20;33.03
4012;BME280;2020;48.682;9.024;2023-02-15T12:49:41;97393.75;;;16.33;32.46
4012;BME280;2020;48.682;9.024;2023-02-15T12:54:46;97378.59;;;16.44;31.62
4012;BME280;2020;48.682;9.024;2023-02-15T12:57:22;97375.28;;;16.50;32.38
4012;BME280;2020;48.682;9.024;2023-02-15T12:59:50;97384.47;;;16.54;32.08
4012;BME280;2020;48.682;9.024;2023-02-15T13:02:22;97379.16;;;16.71;32.15
4012;BME280;2020;48.682;9.024;2023-02-15T13:04:48;97372.97;;;16.55;32.01
4012;BME280;2020;48.682;9.024;2023-02-15T13:07:14;97365.25;;;16.62;31.78
4012;BME280;2020;48.682;9.024;2023-02-15T13:09:40;97369.03;;;16.91;32.67
4012;BME280;2020;48.682;9.024;2023-02-15T13:12:18;97364.25;;;16.94;35.91
4012;BME280;2020;48.682;9.024;2023-02-15T13:14:47;97361.66;;;16.55;34.54
4012;BME280;2020;48.682;9.024;2023-02-15T13:17:16;97360.16;;;16.60;35.54
4012;BME280;2020;48.682;9.024;2023-02-15T13:19:47;97355.47;;;16.79;33.90
4012;BME280;2020;48.682;9.024;2023-02-15T13:22:19;97345.53;;;16.89;33.45
4012;BME280;2020;48.682;9.024;2023-02-15T13:24:48;97348.66;;;16.61;33.87
4012;BME280;2020;48.682;9.024;2023-02-15T13:27:17;97349.03;;;16.50;35.22
4012;BME280;2020;48.682;9.024;2023-02-15T13:29:55;97351.00;;;16.48;35.92
4012;BME280;2020;48.682;9.024;2023-02-15T13:32:33;97343.13;;;16.48;35.98
4012;BME280;2020;48.682;9.024;2023-02-15T13:35:02;97343.06;;;16.64;35.56
4012;BME280;2020;48.682;9.024;2023-02-15T13:38:00;97335.19;;;16.56;35.56
4012;BME280;2020;48.682;9.024;2023-02-15T13:40:42;97337.88;;;16.48;35.28
4012;BME280;2020;48.682;9.024;2023-02-15T13:46:52;97338.50;;;16.58;34.84
4012;BME280;2020;48.682;9.024;2023-02-15T13:49:30;97332.22;;;16.28;33.84
4012;BME280;2020;48.682;9.024;2023-02-15T13:52:24;97328.31;;;16.55;34.31
4012;BME280;2020;48.682;9.024;2023-02-15T14:00:11;97319.75;;;15.57;35.43
4012;BME280;2020;48.682;9.024;2023-02-15T14:11:07;97321.84;;;15.61;34.74
4012;BME280;2020;48.682;9.024;2023-02-15T14:13:52;97320.66;;;15.97;34.27
4012;BME280;2020;48.682;9.024;2023-02-15T14:19:05;97325.09;;;15.88;34.23
4012;BME280;2020;48.682;9.024;2023-02-15T14:24:29;97323.97;;;15.74;34.56
4012;BME280;2020;48.682;9.024;2023-02-15T14:27:26;97326.47;;;15.51;35.15
4012;BME280;2020;48.682;9.024;2023-02-15T14:29:56;97323.38;;;15.39;35.51
4012;BME280;2020;48.682;9.024;2023-02-15T14:32:33;97326.00;;;15.47;35.74
4012;BME280;2020;48.682;9.024;2023-02-15T14:35:02;97325.78;;;15.57;36.24
4012;BME280;2020;48.682;9.024;2023-02-15T14:40:57;97327.25;;;15.76;35.48
4012;BME280;2020;48.682;9.024;2023-02-15T14:46:32;97318.63;;;16.16;35.70
4012;BME280;2020;48.682;9.024;2023-02-15T14:54:07;97329.91;;;15.60;35.84
4012;BME280;2020;48.682;9.024;2023-02-15T14:56:32;97330.88;;;15.67;36.02
4012;BME280;2020;48.682;9.024;2023-02-15T14:59:00;97330.88;;;15.67;35.98
4012;BME280;2020;48.682;9.024;2023-02-15T15:01:29;97336.91;;;15.76;36.84
4012;BME280;2020;48.682;9.024;2023-02-15T15:04:02;97336.16;;;15.50;37.12
4012;BME280;2020;48.682;9.024;2023-02-15T15:06:31;97336.94;;;15.51;36.92
4012;BME280;2020;48.682;9.024;2023-02-15T15:09:11;97338.78;;;15.26;37.65
4012;BME280;2020;48.682;9.024;2023-02-15T15:11:49;97343.03;;;15.43;37.99
4012;BME280;2020;48.682;9.024;2023-02-15T15:17:02;97334.00;;;15.46;37.53
4012;BME280;2020;48.682;9.024;2023-02-15T15:22:32;97334.81;;;15.13;37.33
4012;BME280;2020;48.682;9.024;2023-02-15T15:24:59;97339.75;;;15.25;37.68
4012;BME280;2020;48.682;9.024;2023-02-15T15:27:38;97336.44;;;14.98;38.02
4012;BME280;2020;48.682;9.024;2023-02-15T15:49:34;97341.38;;;15.17;35.89
4012;BME280;2020;48.682;9.024;2023-02-15T15:52:07;97342.53;;;15.56;34.96
4012;BME280;2020;48.682;9.024;2023-02-15T15:54:38;97340.09;;;15.38;34.14
4012;BME280;2020;48.682;9.024;2023-02-15T15:57:05;97343.31;;;15.82;33.60
4012;BME280;2020;48.682;9.024;2023-02-15T15:59:44;97341.63;;;16.05;32.44
4012;BME280;2020;48.682;9.024;2023-02-15T16:02:13;97341.03;;;15.70;32.68